Terminal Aerodrome Forecast
Issued by NWS Memphis, TN

Home | Current Version | Previous Version | Text Only | Print | Product List | Glossary On
Versions: 1 2 3 4 5 6 7 8 9 10 11 12
000
FTUS44 KMEG 211100
TAFMKL
TAF
KMKL 211128Z 2112/2212 21006KT P6SM SCT070 BKN120
     FM211800 23010KT P6SM VCSH BKN070 OVC120
     FM212300 24006KT P6SM -SHRA BKN050 OVC070
      TEMPO 2200/2204 5SM TSRA BKN040CB
     FM220800 26004KT 6SM BR VCSH SCT012 OVC040=

USA.gov is the U.S. government's official web portal to all federal, state and local government web resources and services.